createdAt,value
2018-02-06T00:00:00.823Z,10.70
2018-02-06T00:01:07.583Z,11.00
2018-02-06T00:02:14.312Z,10.70
2018-02-06T00:03:21.115Z,9.90
2018-02-06T00:04:27.829Z,10.40
2018-02-06T00:05:34.556Z,10.80
2018-02-06T00:06:41.271Z,10.30
2018-02-06T00:07:48.024Z,10.40
2018-02-06T00:08:54.847Z,9.90
2018-02-06T00:10:01.617Z,10.10
2018-02-06T00:11:08.378Z,9.50
2018-02-06T00:12:15.133Z,11.70
2018-02-06T00:13:22.008Z,10.30
2018-02-06T00:14:28.749Z,11.20
2018-02-06T00:15:35.476Z,9.50
2018-02-06T00:16:42.220Z,10.40
2018-02-06T00:17:48.949Z,10.50
2018-02-06T00:18:55.768Z,10.00
2018-02-06T00:20:02.506Z,10.20
2018-02-06T00:21:09.224Z,9.70
2018-02-06T00:22:16.000Z,10.40
2018-02-06T00:23:22.723Z,11.00
2018-02-06T00:24:29.566Z,10.60
2018-02-06T00:25:36.309Z,9.60
2018-02-06T00:26:43.049Z,10.20
2018-02-06T00:27:49.787Z,10.90
2018-02-06T00:28:56.484Z,10.90
2018-02-06T00:30:03.207Z,10.80
2018-02-06T00:31:10.005Z,10.50
2018-02-06T00:32:16.708Z,10.00
2018-02-06T00:33:23.428Z,10.20
2018-02-06T00:34:30.137Z,11.20
2018-02-06T00:35:36.903Z,10.10
2018-02-06T00:36:43.621Z,11.30
2018-02-06T00:37:50.328Z,11.60
2018-02-06T00:38:57.107Z,10.10
2018-02-06T00:40:03.821Z,10.30
2018-02-06T00:41:10.580Z,10.80
2018-02-06T00:42:17.321Z,10.20
2018-02-06T00:43:24.044Z,12.20
2018-02-06T00:44:30.892Z,11.60
2018-02-06T00:45:37.615Z,10.80
2018-02-06T00:46:44.380Z,10.20
2018-02-06T00:47:51.132Z,12.30
2018-02-06T00:48:57.860Z,11.50
2018-02-06T00:50:04.656Z,11.50
2018-02-06T00:51:11.377Z,10.20
2018-02-06T00:52:18.118Z,10.80
2018-02-06T00:53:25.120Z,11.40
2018-02-06T00:54:31.829Z,12.10
2018-02-06T00:55:38.563Z,13.20
2018-02-06T00:56:45.278Z,11.00
2018-02-06T00:57:52.001Z,10.40
2018-02-06T00:58:58.750Z,11.30
2018-02-06T01:00:05.624Z,11.50
2018-02-06T01:01:12.452Z,10.40
2018-02-06T01:02:19.160Z,10.00
2018-02-06T01:03:25.991Z,11.10
2018-02-06T01:04:32.693Z,11.10
2018-02-06T01:05:39.413Z,11.50
2018-02-06T01:06:46.120Z,11.60
2018-02-06T01:07:52.820Z,10.60
2018-02-06T01:08:59.552Z,11.50
2018-02-06T01:10:06.248Z,11.60
2018-02-06T01:11:13.061Z,9.80
2018-02-06T01:12:19.788Z,11.30
2018-02-06T01:13:26.496Z,10.80
2018-02-06T01:14:33.224Z,10.40
2018-02-06T01:15:40.005Z,10.70
2018-02-06T01:16:46.712Z,10.60
2018-02-06T01:17:53.512Z,11.50
2018-02-06T01:19:00.217Z,10.80
2018-02-06T01:20:06.926Z,11.10
2018-02-06T01:21:13.656Z,10.40
2018-02-06T01:22:20.364Z,11.60
2018-02-06T01:23:27.049Z,10.00
2018-02-06T01:24:33.750Z,10.80
2018-02-06T01:25:40.568Z,10.70
2018-02-06T01:26:47.293Z,11.20
2018-02-06T01:27:54.108Z,11.60
2018-02-06T01:29:00.799Z,11.90
2018-02-06T01:30:07.529Z,10.60
2018-02-06T01:31:14.359Z,10.80
2018-02-06T01:32:21.092Z,10.10
2018-02-06T01:33:27.808Z,11.30
2018-02-06T01:34:34.545Z,10.50
2018-02-06T01:35:41.271Z,11.10
2018-02-06T01:36:47.994Z,10.10
2018-02-06T01:37:54.813Z,10.30
2018-02-06T01:39:01.578Z,11.00
2018-02-06T01:40:08.656Z,12.10
2018-02-06T01:41:15.357Z,10.50
2018-02-06T01:42:22.100Z,10.40
2018-02-06T01:43:28.801Z,11.20
2018-02-06T01:44:35.505Z,12.10
2018-02-06T01:45:42.224Z,11.30
2018-02-06T01:46:49.007Z,10.70
2018-02-06T01:47:55.720Z,11.00
2018-02-06T01:49:02.404Z,10.70
2018-02-06T01:50:09.080Z,12.10
2018-02-06T01:51:15.765Z,11.40
2018-02-06T01:52:22.629Z,11.40
2018-02-06T01:53:29.492Z,11.40
2018-02-06T01:54:36.163Z,10.80
2018-02-06T01:55:42.863Z,11.60
2018-02-06T01:56:49.563Z,11.30
2018-02-06T01:57:56.274Z,12.40
2018-02-06T01:59:02.968Z,10.90
2018-02-06T02:00:09.695Z,11.20
2018-02-06T02:01:16.394Z,11.20
2018-02-06T02:02:23.144Z,11.80
2018-02-06T02:03:29.914Z,10.80
2018-02-06T02:04:36.600Z,11.20
2018-02-06T02:05:43.376Z,11.00
2018-02-06T02:06:50.135Z,11.40
2018-02-06T02:07:56.846Z,11.50
2018-02-06T02:09:03.544Z,10.90
2018-02-06T02:10:10.328Z,11.50
2018-02-06T02:11:17.007Z,11.70
2018-02-06T02:12:24.222Z,11.20
2018-02-06T02:13:30.932Z,10.90
2018-02-06T02:14:37.744Z,11.90
2018-02-06T02:15:44.403Z,11.00
2018-02-06T02:16:51.103Z,11.10
2018-02-06T02:17:57.813Z,11.30
2018-02-06T02:19:04.506Z,11.40
2018-02-06T02:20:11.295Z,10.90
2018-02-06T02:21:17.981Z,11.40
2018-02-06T02:22:24.792Z,12.40
2018-02-06T02:23:31.507Z,10.70
2018-02-06T02:24:38.224Z,10.90
2018-02-06T02:25:44.935Z,12.10
2018-02-06T02:26:51.729Z,11.10
2018-02-06T02:27:58.536Z,11.40
2018-02-06T02:29:05.219Z,11.10
2018-02-06T02:30:11.926Z,11.50
2018-02-06T02:31:18.643Z,11.90
2018-02-06T02:32:25.352Z,11.30
2018-02-06T02:33:32.053Z,10.80
2018-02-06T02:34:38.868Z,11.90
2018-02-06T02:35:45.558Z,11.70
2018-02-06T02:36:52.265Z,12.10
2018-02-06T02:37:59.008Z,10.80
2018-02-06T02:39:05.775Z,10.90
2018-02-06T02:40:12.471Z,11.70
2018-02-06T02:41:19.177Z,12.00
2018-02-06T04:38:56.554Z,14.20
2018-02-06T04:40:03.287Z,12.90
2018-02-06T04:41:10.080Z,13.80
2018-02-06T04:42:16.779Z,13.30
2018-02-06T04:43:23.479Z,14.10
2018-02-06T04:44:30.176Z,14.60
2018-02-06T04:45:36.934Z,14.20
2018-02-06T04:46:43.632Z,13.20
2018-02-06T04:47:50.356Z,13.00
2018-02-06T04:48:57.123Z,13.90
2018-02-06T04:50:03.854Z,13.60
2018-02-06T04:51:10.575Z,13.80
2018-02-06T04:52:17.324Z,14.30
2018-02-06T04:53:24.227Z,14.00
2018-02-06T04:54:30.943Z,14.30
2018-02-06T04:55:37.647Z,14.10
2018-02-06T04:56:44.379Z,14.50
2018-02-06T04:57:51.103Z,14.40
2018-02-06T04:58:57.812Z,14.90
2018-02-06T05:00:04.483Z,13.80
2018-02-06T05:01:11.201Z,13.20
2018-02-06T05:02:17.965Z,14.00
2018-02-06T05:03:24.700Z,14.20
2018-02-06T05:04:31.415Z,14.10
2018-02-06T05:05:38.117Z,14.10
2018-02-06T05:06:44.826Z,13.80
2018-02-06T05:07:51.524Z,15.70
2018-02-06T05:08:58.205Z,14.00
2018-02-06T05:10:04.887Z,15.60
2018-02-06T05:11:11.747Z,14.10
2018-02-06T05:12:18.472Z,14.50
2018-02-06T05:13:25.195Z,14.30
2018-02-06T05:14:31.921Z,13.60
2018-02-06T05:15:38.652Z,14.30
2018-02-06T05:16:45.434Z,14.20
2018-02-06T05:17:52.128Z,13.70
2018-02-06T05:18:58.916Z,14.50
2018-02-06T05:20:05.643Z,14.00
2018-02-06T05:21:12.436Z,14.30
2018-02-06T05:22:19.187Z,14.80
2018-02-06T05:23:25.929Z,14.50
2018-02-06T05:24:32.639Z,14.70
2018-02-06T05:25:39.347Z,15.40
2018-02-06T05:26:46.040Z,13.80
2018-02-06T05:27:52.800Z,15.40
2018-02-06T05:28:59.504Z,15.20
2018-02-06T05:30:06.279Z,15.00
2018-02-06T05:31:12.967Z,15.90
2018-02-06T05:32:19.672Z,13.70
2018-02-06T05:33:26.398Z,14.80
2018-02-06T05:34:33.113Z,14.50
2018-02-06T05:35:39.829Z,14.50
2018-02-06T05:36:46.524Z,15.10
2018-02-06T05:37:53.231Z,14.50
2018-02-06T05:38:59.941Z,15.40
2018-02-06T05:40:06.748Z,14.40
2018-02-06T05:41:13.445Z,13.30
2018-02-06T05:42:20.167Z,15.10
2018-02-06T05:43:26.878Z,14.20
2018-02-06T05:44:33.595Z,14.40
2018-02-06T05:45:40.329Z,14.60
2018-02-06T05:46:47.026Z,15.00
2018-02-06T05:47:53.719Z,14.50
2018-02-06T05:49:00.547Z,14.90
2018-02-06T05:50:07.258Z,14.50
2018-02-06T05:51:13.995Z,14.30
2018-02-06T05:52:20.696Z,15.00
2018-02-06T05:53:27.469Z,14.90
2018-02-06T05:54:34.175Z,15.40
2018-02-06T05:55:40.936Z,15.00
2018-02-06T05:56:47.630Z,14.60
2018-02-06T05:57:54.327Z,15.00
2018-02-06T05:59:01.048Z,15.10
2018-02-06T06:00:07.768Z,14.90
2018-02-06T06:01:14.506Z,15.60
2018-02-06T06:02:21.205Z,15.70
2018-02-06T06:03:28.279Z,14.80
2018-02-06T06:04:35.174Z,16.60
2018-02-06T06:05:41.884Z,14.90
2018-02-06T06:06:48.652Z,15.90
2018-02-06T06:07:55.404Z,15.40
2018-02-06T06:09:02.127Z,15.50
2018-02-06T06:10:08.963Z,15.70
2018-02-06T06:11:15.703Z,15.20
2018-02-06T06:12:22.454Z,16.40
2018-02-06T06:13:29.232Z,15.40
2018-02-06T06:14:36.076Z,15.30
2018-02-06T06:15:42.812Z,15.00
2018-02-06T06:16:49.647Z,16.00
2018-02-06T06:17:56.355Z,14.10
2018-02-06T06:19:03.480Z,15.20
2018-02-06T06:20:10.332Z,16.20
2018-02-06T06:21:17.050Z,13.90
2018-02-06T06:22:23.790Z,15.00
2018-02-06T06:23:30.556Z,14.60
2018-02-06T06:24:37.272Z,15.20
2018-02-06T06:25:44.120Z,15.30
2018-02-06T06:26:50.863Z,14.70
2018-02-06T06:27:57.594Z,15.80
2018-02-06T06:29:04.340Z,14.40
2018-02-06T06:30:11.045Z,15.40
2018-02-06T06:31:17.919Z,15.80
2018-02-06T06:32:24.688Z,16.50
2018-02-06T06:33:31.441Z,14.80
2018-02-06T06:34:38.179Z,14.80
2018-02-06T06:35:45.009Z,16.20
2018-02-06T06:36:51.747Z,16.30
2018-02-06T06:37:58.544Z,15.20
2018-02-06T06:39:05.278Z,15.40
2018-02-06T06:40:12.348Z,15.70
2018-02-06T06:41:19.104Z,16.50
2018-02-06T06:42:25.912Z,19.40
2018-02-06T06:43:32.631Z,19.30
2018-02-06T06:44:39.357Z,22.10
2018-02-06T06:45:46.115Z,21.70
2018-02-06T06:46:52.835Z,25.30
2018-02-06T06:47:59.672Z,32.30
2018-02-06T06:49:06.390Z,31.00
2018-02-06T06:50:13.136Z,37.90
2018-02-06T06:51:19.867Z,22.80
2018-02-06T06:52:26.604Z,21.20
2018-02-06T06:53:33.443Z,22.40
2018-02-06T06:54:40.268Z,20.30
2018-02-06T06:55:47.036Z,17.70
2018-02-06T06:56:53.782Z,18.40
2018-02-06T06:58:00.660Z,18.40
2018-02-06T06:59:07.457Z,19.50
2018-02-06T07:00:14.188Z,20.10
2018-02-06T07:01:21.296Z,16.30
2018-02-06T07:02:28.081Z,18.50
2018-02-06T07:03:34.848Z,16.00
2018-02-06T07:04:41.599Z,16.60
2018-02-06T07:05:48.352Z,16.20
2018-02-06T07:06:55.122Z,15.70
2018-02-06T07:08:01.964Z,17.40
2018-02-06T07:09:08.725Z,17.10
2018-02-06T07:10:15.477Z,17.80
2018-02-06T07:11:22.454Z,16.30
2018-02-06T07:12:29.198Z,18.70
2018-02-06T07:13:35.966Z,20.60
2018-02-06T07:14:42.677Z,19.10
2018-02-06T07:15:49.532Z,16.70
2018-02-06T07:16:56.275Z,16.60
2018-02-06T07:18:03.012Z,15.80
2018-02-06T07:19:09.757Z,15.30
2018-02-06T07:20:16.501Z,16.00
2018-02-06T07:21:23.365Z,17.80
2018-02-06T07:22:30.067Z,17.40
2018-02-06T07:23:36.819Z,17.10
2018-02-06T07:24:43.568Z,16.00
2018-02-06T07:25:50.431Z,17.80
2018-02-06T07:27:00.064Z,17.00
2018-02-06T07:28:06.471Z,18.90
2018-02-06T07:29:12.492Z,16.20
2018-02-06T07:30:18.228Z,17.60
2018-02-06T07:31:25.013Z,17.80
2018-02-06T07:32:31.895Z,19.90
2018-02-06T07:33:38.742Z,18.10
2018-02-06T07:34:46.107Z,16.90
2018-02-06T07:35:52.617Z,16.10
2018-02-06T07:37:04.342Z,16.20
2018-02-06T07:38:06.211Z,17.10
2018-02-06T07:39:13.176Z,16.40
2018-02-06T07:40:19.716Z,16.70
2018-02-06T07:41:26.586Z,18.80
2018-02-06T07:42:33.680Z,22.00
2018-02-06T07:43:40.432Z,21.60
2018-02-06T07:44:47.371Z,21.10
2018-02-06T07:45:54.238Z,23.20
2018-02-06T07:47:00.948Z,23.50
2018-02-06T07:48:07.718Z,21.40
2018-02-06T07:49:14.462Z,22.20
2018-02-06T07:50:21.168Z,22.50
2018-02-06T07:51:28.039Z,21.40
2018-02-06T07:52:34.800Z,18.30
2018-02-06T07:53:41.663Z,18.10
2018-02-06T07:54:48.586Z,19.20
2018-02-06T07:55:55.340Z,16.80
2018-02-06T07:57:02.093Z,16.70
2018-02-06T07:58:08.814Z,16.90
2018-02-06T07:59:15.664Z,18.30
2018-02-06T08:00:22.376Z,19.50
2018-02-06T08:01:29.125Z,18.30
2018-02-06T08:02:35.848Z,26.10
2018-02-06T08:03:42.622Z,19.50
2018-02-06T08:04:49.467Z,16.60
2018-02-06T08:05:56.218Z,17.10
2018-02-06T08:07:03.075Z,16.70
2018-02-06T08:08:09.756Z,15.90
2018-02-06T08:09:16.594Z,16.80
2018-02-06T08:10:23.352Z,16.30
2018-02-06T08:11:30.080Z,17.50
2018-02-06T08:12:36.847Z,16.50
2018-02-06T08:12:59.426Z,15.80
2018-02-06T08:14:02.292Z,18.50
2018-02-06T08:15:09.146Z,31.40
2018-02-06T08:16:16.008Z,22.50
2018-02-06T08:17:22.738Z,20.80
2018-02-06T08:18:29.455Z,16.60
2018-02-06T08:19:36.220Z,17.20
2018-02-06T08:20:42.980Z,18.50
2018-02-06T08:21:49.708Z,17.10
2018-02-06T08:22:56.548Z,15.70
2018-02-06T08:24:03.355Z,15.80
2018-02-06T08:25:10.174Z,16.40
2018-02-06T08:26:17.024Z,17.20
2018-02-06T08:27:23.768Z,17.20
2018-02-06T08:28:30.500Z,16.30
2018-02-06T08:29:37.264Z,17.70
2018-02-06T08:30:44.020Z,18.20
2018-02-06T08:31:50.812Z,17.40
2018-02-06T08:32:57.585Z,17.00
2018-02-06T08:34:04.313Z,17.20
2018-02-06T08:35:11.087Z,16.70
2018-02-06T08:36:17.932Z,16.50
2018-02-06T08:37:24.639Z,17.60
2018-02-06T08:38:31.367Z,18.60
2018-02-06T08:39:38.101Z,16.60
2018-02-06T08:40:44.848Z,17.30
2018-02-06T08:41:51.586Z,16.60
2018-02-06T08:42:58.394Z,17.60
2018-02-06T08:44:05.549Z,15.70
2018-02-06T08:45:12.315Z,18.00
2018-02-06T08:46:19.074Z,17.10
2018-02-06T08:47:25.804Z,16.60
2018-02-06T08:48:32.648Z,16.10
2018-02-06T08:49:39.382Z,16.30
2018-02-06T08:50:46.157Z,16.20
2018-02-06T08:51:52.903Z,16.40
2018-02-06T08:52:59.756Z,17.20
2018-02-06T08:54:06.634Z,17.40
2018-02-06T08:55:13.412Z,17.00
2018-02-06T08:56:20.233Z,16.50
2018-02-06T08:57:26.980Z,17.40
2018-02-06T08:58:33.716Z,16.70
2018-02-06T08:59:40.472Z,16.00
2018-02-06T09:00:47.352Z,17.30
2018-02-06T09:01:54.171Z,17.50
2018-02-06T09:03:00.924Z,16.20
2018-02-06T09:04:07.793Z,17.70
2018-02-06T09:05:14.498Z,16.70
2018-02-06T09:06:21.249Z,16.80
2018-02-06T09:07:27.972Z,16.30
2018-02-06T09:08:34.716Z,16.20
2018-02-06T09:09:41.677Z,17.10
2018-02-06T09:10:48.389Z,17.40
2018-02-06T09:11:55.397Z,17.00
2018-02-06T09:13:01.897Z,17.30
2018-02-06T09:14:08.667Z,15.60
2018-02-06T09:15:15.369Z,16.80
2018-02-06T09:16:22.088Z,16.60
2018-02-06T09:17:28.863Z,16.70
2018-02-06T09:18:35.594Z,16.20
2018-02-06T09:19:42.319Z,16.30
2018-02-06T09:20:49.115Z,16.80
2018-02-06T09:21:55.901Z,17.50
2018-02-06T09:23:02.683Z,17.30
2018-02-06T09:24:09.399Z,15.80
2018-02-06T09:25:16.127Z,17.60
2018-02-06T09:26:22.928Z,17.60
2018-02-06T09:27:29.715Z,16.60
2018-02-06T09:28:36.534Z,15.70
2018-02-06T09:29:43.432Z,16.90
2018-02-06T09:30:50.200Z,17.80
2018-02-06T09:31:56.998Z,17.10
2018-02-06T09:33:03.837Z,16.70
2018-02-06T09:34:10.680Z,17.50
2018-02-06T09:35:17.487Z,17.20
2018-02-06T09:36:24.288Z,17.50
2018-02-06T09:37:31.083Z,16.70
2018-02-06T09:38:37.811Z,16.10
2018-02-06T09:39:44.541Z,16.10
2018-02-06T09:40:51.384Z,17.40
2018-02-06T09:41:58.092Z,17.60
2018-02-06T09:43:05.133Z,17.10
2018-02-06T09:44:11.859Z,17.60
2018-02-06T09:45:18.600Z,16.30
2018-02-06T09:46:25.312Z,16.60
2018-02-06T09:47:32.057Z,16.70
2018-02-06T09:48:38.795Z,16.30
2018-02-06T09:49:45.608Z,16.70
2018-02-06T09:50:52.328Z,17.80
2018-02-06T09:51:59.155Z,16.20
2018-02-06T09:53:05.979Z,19.90
2018-02-06T09:54:12.791Z,31.30
2018-02-06T09:55:19.583Z,23.20
2018-02-06T09:56:26.317Z,18.70
2018-02-06T09:57:33.312Z,17.20
2018-02-06T09:58:40.065Z,21.90
2018-02-06T09:59:46.811Z,19.70
2018-02-06T10:00:53.632Z,33.30
2018-02-06T10:02:00.392Z,24.50
2018-02-06T10:03:07.140Z,22.80
2018-02-06T10:04:13.913Z,22.60
2018-02-06T10:05:20.717Z,20.60
2018-02-06T10:06:27.434Z,20.00
2018-02-06T10:07:34.227Z,19.30
2018-02-06T10:08:40.960Z,23.20
2018-02-06T10:09:47.664Z,22.20
2018-02-06T10:10:54.487Z,21.40
2018-02-06T10:12:01.199Z,21.60
2018-02-06T10:13:07.932Z,21.90
2018-02-06T10:14:14.650Z,21.00
2018-02-06T10:15:21.372Z,20.30
2018-02-06T10:16:28.115Z,24.00
2018-02-06T10:17:34.925Z,28.00
2018-02-06T10:18:41.953Z,21.20
2018-02-06T10:19:48.750Z,20.40
2018-02-06T10:20:55.451Z,20.40
2018-02-06T10:22:02.196Z,19.90
2018-02-06T10:23:08.919Z,17.60
2018-02-06T10:24:15.623Z,20.90
2018-02-06T10:25:22.615Z,21.00
2018-02-06T10:26:29.328Z,21.90
2018-02-06T10:27:36.031Z,21.90
2018-02-06T10:28:42.737Z,24.00
2018-02-06T10:29:49.436Z,18.80
2018-02-06T10:30:56.195Z,19.20
2018-02-06T10:32:02.936Z,21.10
2018-02-06T10:33:09.633Z,19.10
2018-02-06T10:34:16.437Z,21.50
2018-02-06T10:35:23.144Z,22.20
2018-02-06T10:36:29.851Z,19.30
2018-02-06T10:37:36.555Z,20.00
2018-02-06T10:38:43.347Z,18.20
2018-02-06T10:39:50.303Z,18.40
2018-02-06T10:40:57.021Z,18.30
2018-02-06T10:42:03.835Z,18.40
2018-02-06T10:43:10.562Z,18.90
2018-02-06T10:44:17.336Z,18.50
2018-02-06T10:45:24.065Z,19.50
2018-02-06T10:46:30.807Z,19.50
2018-02-06T10:47:37.633Z,17.60
2018-02-06T10:48:44.323Z,19.00
2018-02-06T10:49:51.021Z,18.60
2018-02-06T10:50:57.774Z,18.30
2018-02-06T10:52:04.516Z,17.60
2018-02-06T10:53:11.358Z,16.60
2018-02-06T10:54:18.369Z,18.00
2018-02-06T10:55:25.268Z,18.20
2018-02-06T10:56:32.019Z,19.00
2018-02-06T10:57:38.768Z,17.60
2018-02-06T10:58:45.483Z,17.90
2018-02-06T10:59:52.208Z,17.90
2018-02-06T11:00:59.011Z,17.90
2018-02-06T11:02:05.755Z,17.20
2018-02-06T11:03:12.535Z,17.50
2018-02-06T11:04:19.287Z,17.60
2018-02-06T11:05:26.151Z,23.00
2018-02-06T11:06:32.908Z,25.70
2018-02-06T11:07:39.640Z,20.10
2018-02-06T11:08:46.410Z,19.70
2018-02-06T11:09:53.305Z,20.00
2018-02-06T11:11:00.045Z,23.40
2018-02-06T11:12:06.810Z,20.90
2018-02-06T11:13:13.561Z,21.10
2018-02-06T11:14:20.371Z,21.20
2018-02-06T11:15:27.127Z,19.90
2018-02-06T11:16:33.867Z,19.50
2018-02-06T11:17:40.615Z,19.00
2018-02-06T11:18:47.361Z,19.10
2018-02-06T11:19:54.163Z,18.30
2018-02-06T11:21:00.887Z,18.20
2018-02-06T11:22:07.631Z,18.20
2018-02-06T11:23:14.375Z,18.30
2018-02-06T11:24:21.267Z,18.60
2018-02-06T11:25:27.996Z,18.30
2018-02-06T11:26:34.749Z,18.20
2018-02-06T11:27:41.481Z,18.50
2018-02-06T11:28:48.372Z,18.80
2018-02-06T11:29:55.107Z,20.20
2018-02-06T11:31:01.839Z,19.90
2018-02-06T11:32:08.585Z,19.20
2018-02-06T11:33:15.465Z,20.40
2018-02-06T11:34:22.252Z,19.40
2018-02-06T11:35:28.996Z,19.00
2018-02-06T11:36:35.705Z,20.20
2018-02-06T11:37:42.543Z,20.00
2018-02-06T11:38:49.279Z,20.70
2018-02-06T11:39:56.125Z,18.40
2018-02-06T11:41:02.997Z,19.30
2018-02-06T11:42:09.774Z,18.40
2018-02-06T11:43:16.512Z,19.10
2018-02-06T11:44:23.261Z,19.50
2018-02-06T11:45:30.119Z,19.30
2018-02-06T11:46:36.855Z,18.30
2018-02-06T11:47:43.632Z,19.20
2018-02-06T11:48:50.367Z,19.80
2018-02-06T11:49:57.187Z,18.70
2018-02-06T11:51:03.955Z,19.60
2018-02-06T11:52:10.700Z,19.30
2018-02-06T11:53:17.460Z,18.60
2018-02-06T11:54:24.371Z,19.60
2018-02-06T11:55:31.144Z,19.40
2018-02-06T11:56:37.872Z,18.30
2018-02-06T11:57:44.708Z,18.80
2018-02-06T11:58:51.475Z,17.50
2018-02-06T11:59:58.359Z,18.60
2018-02-06T12:01:05.167Z,18.30
2018-02-06T12:02:12.290Z,19.10
2018-02-06T12:03:19.012Z,18.20
2018-02-06T12:04:25.763Z,18.40
2018-02-06T12:05:32.487Z,18.70
2018-02-06T12:06:39.187Z,18.50
2018-02-06T12:07:45.895Z,18.70
2018-02-06T12:08:52.701Z,18.60
2018-02-06T12:09:59.465Z,18.40
2018-02-06T12:11:06.189Z,18.30
2018-02-06T12:12:12.950Z,19.10
2018-02-06T12:13:19.811Z,18.20
2018-02-06T12:14:26.512Z,18.70
2018-02-06T12:15:33.251Z,18.30
2018-02-06T12:16:39.982Z,17.90
2018-02-06T12:17:46.701Z,18.90
2018-02-06T12:18:53.411Z,20.40
2018-02-06T12:20:00.202Z,19.40
2018-02-06T12:21:06.902Z,19.30
2018-02-06T12:22:13.822Z,18.70
2018-02-06T12:23:20.672Z,18.60
2018-02-06T12:24:27.402Z,19.60
2018-02-06T12:25:34.198Z,18.80
2018-02-06T12:26:40.952Z,19.90
2018-02-06T12:27:47.795Z,19.50
2018-02-06T12:28:54.555Z,19.80
2018-02-06T12:30:01.567Z,18.60
2018-02-06T12:31:08.037Z,19.20
2018-02-06T12:32:15.008Z,19.20
2018-02-06T12:33:21.827Z,19.00
2018-02-06T12:34:28.719Z,18.20
2018-02-06T12:35:35.528Z,18.70
2018-02-06T12:36:42.291Z,18.70
2018-02-06T12:37:49.003Z,20.20
2018-02-06T12:38:55.723Z,20.20
2018-02-06T12:40:02.512Z,20.40
2018-02-06T12:41:09.246Z,20.80
2018-02-06T12:42:16.051Z,19.40
2018-02-06T12:43:22.775Z,19.80
2018-02-06T12:44:29.491Z,22.50
2018-02-06T12:45:36.295Z,23.60
2018-02-06T12:46:43.039Z,19.60
2018-02-06T12:47:49.871Z,19.50
2018-02-06T12:48:56.571Z,20.70
2018-02-06T12:50:03.295Z,19.90
2018-02-06T12:51:10.099Z,21.50
2018-02-06T12:52:16.879Z,20.30
2018-02-06T12:53:23.667Z,20.30
2018-02-06T12:54:30.426Z,17.70
2018-02-06T12:55:37.217Z,19.10
2018-02-06T12:56:43.944Z,18.30
2018-02-06T12:57:50.665Z,19.40
2018-02-06T12:58:57.420Z,19.70
2018-02-06T13:00:04.151Z,18.60
2018-02-06T13:01:10.836Z,18.00
2018-02-06T13:02:17.635Z,19.30
2018-02-06T13:03:24.341Z,18.00
2018-02-06T13:04:31.105Z,20.20
2018-02-06T13:05:37.838Z,19.70
2018-02-06T13:06:44.567Z,17.80
2018-02-06T13:07:51.380Z,19.70
2018-02-06T13:08:58.168Z,18.60
2018-02-06T13:10:04.932Z,17.60
2018-02-06T13:11:11.647Z,18.00
2018-02-06T13:12:18.460Z,17.70
2018-02-06T13:13:25.236Z,17.90
2018-02-06T13:14:32.016Z,18.50
2018-02-06T13:15:38.746Z,18.00
2018-02-06T13:16:45.554Z,19.10
2018-02-06T13:17:52.386Z,17.90
2018-02-06T13:18:59.157Z,19.00
2018-02-06T13:20:05.978Z,18.40
2018-02-06T13:21:12.812Z,19.40
2018-02-06T13:22:19.563Z,17.50
2018-02-06T13:23:26.283Z,18.10
2018-02-06T13:24:33.095Z,17.00
2018-02-06T13:25:39.827Z,18.50
2018-02-06T13:26:46.559Z,17.70
2018-02-06T13:27:53.287Z,18.20
2018-02-06T13:29:00.103Z,19.50
2018-02-06T13:30:07.106Z,17.50
2018-02-06T13:31:13.946Z,18.80
2018-02-06T13:32:20.703Z,19.50
2018-02-06T13:33:27.471Z,19.40
2018-02-06T13:34:34.335Z,18.00
2018-02-06T13:35:41.164Z,18.70
2018-02-06T13:36:47.848Z,19.50
2018-02-06T13:37:54.599Z,17.90
2018-02-06T13:39:01.318Z,17.00
2018-02-06T13:40:08.246Z,17.80
2018-02-06T13:41:15.013Z,20.80
2018-02-06T13:42:21.735Z,19.60
2018-02-06T13:43:28.556Z,19.10
2018-02-06T13:44:35.277Z,18.30
2018-02-06T13:45:42.039Z,17.90
2018-02-06T13:46:48.807Z,19.90
2018-02-06T13:47:55.631Z,18.10
2018-02-06T13:49:02.339Z,18.30
2018-02-06T13:50:09.079Z,19.20
2018-02-06T13:51:15.819Z,17.80
2018-02-06T13:52:22.763Z,18.00
2018-02-06T13:53:29.546Z,18.00
2018-02-06T13:54:36.343Z,19.10
2018-02-06T13:55:43.160Z,18.90
2018-02-06T13:56:49.953Z,18.10
2018-02-06T13:57:56.711Z,18.80
2018-02-06T13:59:03.455Z,17.80
2018-02-06T14:00:10.322Z,19.20
2018-02-06T14:01:17.167Z,17.30
2018-02-06T14:02:23.907Z,19.30
2018-02-06T14:03:30.755Z,20.20
2018-02-06T14:04:37.456Z,18.50
2018-02-06T14:05:44.187Z,18.90
2018-02-06T14:06:51.009Z,18.00
2018-02-06T14:07:57.852Z,18.50
2018-02-06T14:09:04.568Z,18.40
2018-02-06T14:10:11.288Z,18.90
2018-02-06T14:11:18.021Z,18.50
2018-02-06T14:12:24.821Z,17.80
2018-02-06T14:13:31.564Z,19.20
2018-02-06T14:14:38.312Z,18.90
2018-02-06T14:15:45.027Z,20.00
2018-02-06T14:16:52.200Z,18.40
2018-02-06T14:17:59.700Z,19.10
2018-02-06T14:19:05.625Z,20.00
2018-02-06T14:20:12.422Z,17.00
2018-02-06T14:21:19.191Z,18.80
2018-02-06T14:22:25.966Z,18.80
2018-02-06T14:23:32.692Z,18.30
2018-02-06T14:24:39.516Z,17.40
2018-02-06T14:25:46.227Z,19.60
2018-02-06T14:26:52.963Z,18.40
2018-02-06T14:27:59.708Z,18.90
2018-02-06T14:29:06.432Z,18.30
2018-02-06T14:30:13.260Z,20.20
2018-02-06T14:31:19.995Z,19.20
2018-02-06T14:32:26.719Z,18.70
2018-02-06T14:33:33.469Z,19.90
2018-02-06T14:34:40.356Z,19.10
2018-02-06T14:35:47.044Z,20.00
2018-02-06T14:36:53.739Z,22.50
2018-02-06T14:38:00.491Z,22.20
2018-02-06T14:39:07.284Z,18.60
2018-02-06T14:40:14.076Z,18.90
2018-02-06T14:41:20.800Z,20.30
2018-02-06T14:42:27.507Z,18.80
2018-02-06T14:43:34.304Z,19.50
2018-02-06T14:44:41.036Z,19.10
2018-02-06T14:45:47.800Z,19.50
2018-02-06T14:46:54.571Z,19.60
2018-02-06T14:48:01.280Z,18.10
2018-02-06T14:49:08.399Z,19.10
2018-02-06T14:50:15.131Z,19.10
2018-02-06T14:51:21.876Z,20.20
2018-02-06T14:52:28.679Z,19.90
2018-02-06T14:53:35.611Z,18.80
2018-02-06T14:54:42.331Z,20.80
2018-02-06T14:55:49.109Z,18.90
2018-02-06T14:56:55.803Z,18.10
2018-02-06T14:58:02.516Z,18.40
2018-02-06T14:59:09.435Z,19.30
2018-02-06T15:00:16.208Z,19.20
2018-02-06T15:01:22.939Z,19.00
2018-02-06T15:02:29.821Z,18.40
2018-02-06T15:03:36.705Z,18.80
2018-02-06T15:04:43.480Z,18.10
2018-02-06T15:05:50.235Z,18.70
2018-02-06T15:06:57.088Z,19.10
2018-02-06T15:08:03.813Z,19.00
2018-02-06T15:09:10.559Z,20.10
2018-02-06T15:10:17.306Z,18.50
2018-02-06T15:11:24.171Z,19.80
2018-02-06T15:12:30.941Z,20.20
2018-02-06T15:13:37.700Z,19.20
2018-02-06T15:14:44.475Z,18.10
2018-02-06T15:15:51.255Z,18.80
2018-02-06T15:16:57.989Z,20.40
2018-02-06T15:18:04.744Z,18.50
2018-02-06T15:19:11.519Z,18.80
2018-02-06T15:20:18.343Z,19.10
2018-02-06T15:21:25.104Z,20.30
2018-02-06T15:22:31.831Z,19.10
2018-02-06T15:23:38.676Z,20.70
2018-02-06T15:24:45.510Z,20.20
2018-02-06T15:25:52.256Z,21.70
2018-02-06T15:26:59.019Z,22.40
2018-02-06T15:28:05.888Z,20.10
2018-02-06T15:29:12.676Z,20.50
2018-02-06T15:30:19.432Z,20.60
2018-02-06T15:31:26.259Z,20.70
2018-02-06T15:32:33.012Z,19.20
2018-02-06T15:33:39.856Z,20.20
2018-02-06T15:34:46.638Z,19.90
2018-02-06T15:35:53.415Z,20.20
2018-02-06T15:37:00.169Z,20.10
2018-02-06T15:38:06.920Z,21.80
2018-02-06T15:39:13.804Z,21.40
2018-02-06T15:40:20.824Z,19.20
2018-02-06T15:41:27.640Z,20.70
2018-02-06T15:42:34.378Z,18.80
2018-02-06T15:43:41.184Z,21.30
2018-02-06T15:44:47.935Z,21.20
2018-02-06T15:45:54.714Z,24.70
2018-02-06T15:47:01.584Z,24.50
2018-02-06T15:48:08.327Z,23.70
2018-02-06T15:49:15.172Z,24.90
2018-02-06T15:50:21.944Z,21.20
2018-02-06T15:51:28.672Z,20.20
2018-02-06T15:52:35.432Z,19.70
2018-02-06T15:53:42.265Z,20.00
2018-02-06T15:54:49.169Z,20.50
2018-02-06T15:55:56.028Z,20.60
2018-02-06T15:57:03.011Z,19.60
2018-02-06T15:58:09.796Z,20.70
2018-02-06T15:59:16.533Z,19.20
2018-02-06T16:00:23.363Z,20.50
2018-02-06T16:01:30.291Z,19.90
2018-02-06T16:02:37.086Z,19.40
2018-02-06T16:03:43.980Z,20.60
2018-02-06T16:04:50.707Z,19.90
2018-02-06T16:05:57.539Z,18.90
2018-02-06T16:07:04.295Z,18.60
2018-02-06T16:08:11.108Z,19.80
2018-02-06T16:09:17.830Z,20.40
2018-02-06T16:10:24.591Z,20.70
2018-02-06T16:11:31.337Z,18.30
2018-02-06T16:12:38.165Z,18.90
2018-02-06T16:13:44.909Z,19.10
2018-02-06T16:14:51.683Z,23.20